Meteo Giornale » Osservazioni meteo Gran Bretagna » Londra City AP

ore: 22:20 - Osservazioni Meteo Londra City AP
Lat. 51° 30' N Lon. 0° 30' W Alt. 5 metri s.l.m.

nuvoloso Europe/London

11 °C

Nuvoloso

Temp. 24 Ore

10 °C

15 °C

Ovest/Sud-Ovest

27.8 Km/h

Dew point 4 °C

Umidità 61 %

Visibilità  10 Km

Il sole sorge alle ore 05:42

Il sole tramonta alle ore 20:17

Data e Ora Cielo e Fenomeni T °C DP °C Um. % Pres. hPa Vis. km Vento km/h
Oggi h: 22:20 nuvoloso Nuvoloso 11 4 61 1013 10 O/SO 27.8
Oggi h: 21:50 molto_nuvoloso Molto Nuvoloso 11 3 57 1013 10 O/SO 25.9
Oggi h: 21:20 nuvoloso Nuvoloso 12 3 54 1013 10 O/SO 31.5
Oggi h: 20:50 sereno Sereno 12 2 50 1012 10 O 25.9
Oggi h: 20:20 poco_nuvoloso Poco Nuvoloso 12 3 54 1012 10 O 31.5
Oggi h: 19:50 nuvoloso Nuvoloso 12 7 71 1012 10 SO 24
Oggi h: 19:20 coperto_pioggia Pioggia Debole 12 7 71 1011 10 O/SO 24
Oggi h: 18:50 sereno Sereno 12 6 66 1011 10 O/SO 25.9
Oggi h: 18:20 coperto_pioggia Pioggia Debole 12 7 71 1011 10 SO 27.8
Oggi h: 17:50 nuvoloso Nuvoloso 13 5 58 1011 10 SO 25.9
Oggi h: 17:20 nuvoloso Nuvoloso 14 6 58 1011 10 SO 25.9
Oggi h: 16:50 coperto_pioggia Pioggia Debole 13 7 66 1011 10 SO 29.6
Oggi h: 16:20 coperto_pioggia Pioggia Debole 13 8 71 1011 10 O/SO 27.8
Oggi h: 15:50 poco_nuvoloso Poco Nuvoloso 14 6 58 1011 10 SO 29.6
Oggi h: 15:20 nuvoloso Nuvoloso 14 7 62 1011 10 O/SO 27.8
Oggi h: 14:50 coperto_pioggia Pioggia Debole 13 7 66 1012 10 O 18.5
Oggi h: 14:20 sereno Sereno 15 5 51 1012 10 SO 20.3
Oggi h: 13:50 nuvoloso Nuvoloso 14 6 58 1012 10 SO 16.7
Oggi h: 13:20 molto_nuvoloso Molto Nuvoloso 14 4 50 1012 10 SO 25.9
Oggi h: 12:50 sereno Sereno 14 5 54 1012 10 O/SO 25.9
Oggi h: 12:20 sereno Sereno 13 5 58 1012 10 SO 35.2
Oggi h: 11:50 poco_nuvoloso Poco Nuvoloso 14 3 47 1012 10 O 29.6
Oggi h: 11:20 molto_nuvoloso Molto Nuvoloso 14 4 50 1013 10 O 29.6
Oggi h: 10:50 molto_nuvoloso Molto Nuvoloso 13 4 54 1012 10 O/SO 29.6
Oggi h: 10:20 molto_nuvoloso Molto Nuvoloso 13 5 58 1012 10 O/SO 25.9
Oggi h: 09:50 molto_nuvoloso Molto Nuvoloso 13 5 58 1012 10 O 24
Oggi h: 09:20 molto_nuvoloso Molto Nuvoloso 13 6 62 1012 10 O/SO 22.2
Oggi h: 08:50 molto_nuvoloso Molto Nuvoloso 12 7 71 1012 10 O/SO 20.3
Oggi h: 08:20 nuvoloso Nuvoloso 11 7 76 1012 10 O/SO 22.2
Oggi h: 07:50 nuvoloso Nuvoloso 11 7 76 1012 10 O/SO 22.2
Oggi h: 07:20 poco_nuvoloso Poco Nuvoloso 10 7 81 1011 10 O/SO 22.2
Oggi h: 06:50 nuvoloso Nuvoloso 10 7 81 1011 10 O/SO 22.2
Oggi h: 06:20 molto_nuvoloso Molto Nuvoloso 10 7 81 1011 10 O/SO 20.3
Oggi h: 05:50 molto_nuvoloso Molto Nuvoloso 10 7 81 1011 10 O/SO 22.2
Oggi h: 05:20 molto_nuvoloso Molto Nuvoloso 10 7 81 1010 10 O/SO 20.3
Oggi h: 04:50 nuvoloso Nuvoloso 10 6 76 1010 10 O 18.5
Oggi h: 04:20 nuvoloso Nuvoloso 11 6 71 1010 10 O 22.2
Oggi h: 03:50 sereno Sereno 11 6 71 1010 10 O 27.8
Oggi h: 03:20 molto_nuvoloso Molto Nuvoloso 11 7 76 1010 10 O 20.3
Oggi h: 02:50 coperto Coperto 12 8 76 1009 10 O/NO 24
Oggi h: 02:20 molto_nuvoloso Molto Nuvoloso 12 8 76 1009 10 O 29.6
Oggi h: 01:50 coperto Coperto 12 8 76 1009 10 O 27.8
Oggi h: 01:20 coperto Coperto 13 9 76 1008 10 O 33.3
Oggi h: 00:50 molto_nuvoloso Molto Nuvoloso 13 11 87 1008 10 O/SO 31.5
Oggi h: 00:20 coperto_pioggia Pioggia Debole 12 11 93 1007 7 O/SO 27.8
Ieri h: 23:50 coperto Coperto 13 11 87 1008 10 O/SO 25.9
Ieri h: 23:20 coperto Coperto 13 11 87 1008 10 SO 33.3
Ieri h: 22:50 coperto_pioggia Pioggia Debole 13 11 87 1008 10 SO 31.5